createdAt,value
2023-08-17T04:15:21.690Z,16.53
2023-08-17T04:16:21.721Z,16.56
2023-08-17T04:17:21.728Z,16.56
2023-08-17T04:18:21.644Z,16.58
2023-08-17T04:19:21.644Z,16.62
2023-08-17T04:20:21.616Z,16.62
2023-08-17T04:21:21.614Z,16.60
2023-08-17T04:22:21.590Z,16.59
2023-08-17T04:23:21.578Z,16.60
2023-08-17T04:24:21.575Z,16.62
2023-08-17T04:25:21.550Z,16.60
2023-08-17T04:26:21.537Z,16.60
2023-08-17T04:27:21.543Z,16.63
2023-08-17T04:28:28.586Z,16.63
2023-08-17T04:29:21.517Z,16.63
2023-08-17T04:30:21.496Z,16.63
2023-08-17T04:31:21.536Z,16.65
2023-08-17T04:32:21.496Z,16.65
2023-08-17T04:33:21.461Z,16.63
2023-08-17T04:34:21.435Z,16.63
2023-08-17T04:35:21.422Z,16.63
2023-08-17T04:36:21.404Z,16.63
2023-08-17T04:37:21.417Z,16.62
2023-08-17T04:38:21.382Z,16.65
2023-08-17T04:39:21.371Z,16.67
2023-08-17T04:40:21.350Z,16.67
2023-08-17T04:41:21.354Z,16.68
2023-08-17T04:42:21.335Z,16.67
2023-08-17T04:43:21.331Z,16.63
2023-08-17T04:44:21.292Z,16.63
2023-08-17T04:45:21.316Z,16.62
2023-08-17T04:46:21.278Z,16.62
2023-08-17T04:47:21.298Z,16.59
2023-08-17T04:48:21.237Z,16.52
2023-08-17T04:49:21.237Z,16.50
2023-08-17T04:50:21.236Z,16.50
2023-08-17T04:51:21.213Z,16.52
2023-08-17T04:52:21.211Z,16.53
2023-08-17T04:53:21.183Z,16.56
2023-08-17T04:54:21.158Z,16.59
2023-08-17T04:55:21.164Z,16.62
2023-08-17T04:56:21.138Z,16.59
2023-08-17T04:57:21.155Z,16.55
2023-08-17T04:58:21.110Z,16.56
2023-08-17T04:59:21.102Z,16.58
2023-08-17T05:00:21.109Z,16.59
2023-08-17T05:01:21.122Z,16.59
2023-08-17T05:02:21.116Z,16.56
2023-08-17T05:03:31.976Z,16.59
2023-08-17T05:04:22.034Z,16.58
2023-08-17T05:05:21.012Z,16.56
2023-08-17T05:06:21.011Z,16.55
2023-08-17T05:07:21.029Z,16.58
2023-08-17T05:08:20.967Z,16.56
2023-08-17T05:09:20.975Z,16.59
2023-08-17T05:10:20.946Z,16.62
2023-08-17T05:11:20.992Z,16.55
2023-08-17T05:12:20.924Z,16.59
2023-08-17T05:13:20.907Z,16.62
2023-08-17T05:14:20.894Z,16.65
2023-08-17T05:15:20.897Z,16.65
2023-08-17T05:16:20.882Z,16.65
2023-08-17T05:17:20.911Z,16.65
2023-08-17T05:18:20.849Z,16.70
2023-08-17T05:19:20.832Z,16.68
2023-08-17T05:20:20.823Z,16.70
2023-08-17T05:21:20.803Z,16.74
2023-08-17T05:22:20.782Z,16.77
2023-08-17T05:23:20.769Z,16.75
2023-08-17T05:24:20.778Z,16.74
2023-08-17T05:25:20.756Z,16.74
2023-08-17T05:26:20.748Z,16.75
2023-08-17T05:27:20.711Z,16.78
2023-08-17T05:28:20.708Z,16.77
2023-08-17T05:29:20.688Z,16.80
2023-08-17T05:30:20.689Z,16.85
2023-08-17T05:31:20.703Z,16.90
2023-08-17T05:32:20.657Z,16.99
2023-08-17T05:33:20.646Z,17.07
2023-08-17T05:34:20.623Z,17.04
2023-08-17T05:35:20.627Z,17.03
2023-08-17T05:36:20.600Z,17.06
2023-08-17T05:37:20.583Z,17.08
2023-08-17T05:38:20.567Z,17.13
2023-08-17T05:39:20.569Z,17.17
2023-08-17T05:40:20.581Z,17.17
2023-08-17T05:41:20.527Z,17.22
2023-08-17T05:42:20.519Z,17.18
2023-08-17T05:43:20.494Z,17.15
2023-08-17T05:44:20.510Z,17.13
2023-08-17T05:45:20.521Z,17.17
2023-08-17T05:46:20.507Z,17.18
2023-08-17T05:47:20.452Z,17.20
2023-08-17T05:48:20.461Z,17.17
2023-08-17T05:49:20.434Z,17.17
2023-08-17T05:50:20.413Z,17.22
2023-08-17T05:51:20.394Z,17.26
2023-08-17T05:52:20.390Z,17.23
2023-08-17T05:53:20.387Z,17.28
2023-08-17T05:54:20.379Z,17.23
2023-08-17T05:55:20.349Z,17.22
2023-08-17T05:56:20.336Z,17.22
2023-08-17T05:57:20.311Z,17.17
2023-08-17T05:58:20.318Z,17.13
2023-08-17T05:59:20.326Z,17.13
2023-08-17T06:00:20.318Z,17.10
2023-08-17T06:01:20.287Z,17.14
2023-08-17T06:02:20.251Z,17.18
2023-08-17T06:03:20.259Z,17.14
2023-08-17T06:04:20.239Z,17.13
2023-08-17T06:05:20.218Z,17.14
2023-08-17T06:06:20.200Z,17.22
2023-08-17T06:07:20.198Z,17.13
2023-08-17T06:08:20.187Z,17.17
2023-08-17T06:09:20.171Z,17.20
2023-08-17T06:10:20.229Z,17.22
2023-08-17T06:11:20.132Z,17.20
2023-08-17T06:12:20.162Z,17.23
2023-08-17T06:13:20.103Z,17.28
2023-08-17T06:14:20.106Z,17.30
2023-08-17T06:15:20.076Z,17.28
2023-08-17T06:16:20.106Z,17.32
2023-08-17T06:17:20.078Z,17.30
2023-08-17T06:18:20.038Z,17.32
2023-08-17T06:19:20.054Z,17.35
2023-08-17T06:20:20.022Z,17.36
2023-08-17T06:21:20.012Z,17.40
2023-08-17T06:22:20.284Z,17.40
2023-08-17T06:23:19.973Z,17.44
2023-08-17T06:24:19.967Z,17.53
2023-08-17T06:25:19.952Z,17.51
2023-08-17T06:26:19.957Z,17.51
2023-08-17T06:27:20.001Z,17.55
2023-08-17T06:28:19.908Z,17.59
2023-08-17T06:29:19.899Z,17.55
2023-08-17T06:30:19.881Z,17.62
2023-08-17T06:31:19.935Z,17.69
2023-08-17T06:32:19.866Z,17.73
2023-08-17T06:33:19.846Z,17.74
2023-08-17T06:34:19.837Z,17.78
2023-08-17T06:35:19.839Z,17.84
2023-08-17T06:36:19.823Z,17.89
2023-08-17T06:37:19.928Z,17.89
2023-08-17T06:38:19.786Z,17.88
2023-08-17T06:39:19.770Z,17.89
2023-08-17T06:40:19.762Z,17.89
2023-08-17T06:41:19.750Z,17.95
2023-08-17T06:42:19.724Z,17.99
2023-08-17T06:43:19.710Z,17.95
2023-08-17T06:44:19.732Z,18.03
2023-08-17T06:45:19.930Z,18.12
2023-08-17T06:46:19.717Z,18.17
2023-08-17T06:47:19.665Z,18.18
2023-08-17T06:48:19.647Z,18.10
2023-08-17T06:49:19.652Z,18.15
2023-08-17T06:50:19.665Z,18.13
2023-08-17T06:51:19.621Z,18.12
2023-08-17T06:52:19.603Z,18.07
2023-08-17T06:53:19.576Z,18.04
2023-08-17T06:54:19.577Z,18.07
2023-08-17T06:55:19.658Z,18.07
2023-08-17T06:56:19.538Z,18.04
2023-08-17T06:57:19.525Z,18.07
2023-08-17T06:58:19.510Z,18.06
2023-08-17T06:59:19.515Z,18.04
2023-08-17T07:00:19.495Z,18.03
2023-08-17T07:01:19.511Z,18.02
2023-08-17T07:02:19.458Z,17.99
2023-08-17T07:03:19.492Z,17.95
2023-08-17T07:04:19.487Z,17.85
2023-08-17T07:05:19.473Z,17.84
2023-08-17T07:06:19.413Z,17.84
2023-08-17T07:07:19.390Z,17.84
2023-08-17T07:08:19.392Z,17.84
2023-08-17T07:09:19.449Z,17.76
2023-08-17T07:10:19.357Z,17.67
2023-08-17T07:11:19.344Z,17.67
2023-08-17T07:12:19.353Z,17.73
2023-08-17T07:13:19.331Z,17.71
2023-08-17T07:14:21.022Z,17.71
2023-08-17T07:15:19.285Z,17.74
2023-08-17T07:16:19.332Z,17.73
2023-08-17T07:17:19.260Z,17.76
2023-08-17T07:18:19.271Z,17.79
2023-08-17T07:20:19.230Z,17.81
2023-08-17T07:21:19.208Z,17.76
2023-08-17T07:22:19.206Z,17.79
2023-08-17T07:23:19.191Z,17.81
2023-08-17T07:24:19.182Z,17.79
2023-08-17T07:25:19.152Z,17.70
2023-08-17T07:26:19.146Z,17.74
2023-08-17T07:27:19.130Z,17.76
2023-08-17T07:28:19.142Z,17.73
2023-08-17T07:29:19.106Z,17.73
2023-08-17T07:30:19.097Z,17.71
2023-08-17T07:31:19.124Z,17.78
2023-08-17T07:32:19.086Z,17.78
2023-08-17T07:33:19.068Z,17.81
2023-08-17T07:34:19.037Z,17.84
2023-08-17T07:35:19.033Z,17.85
2023-08-17T07:36:19.013Z,17.84
2023-08-17T07:37:19.008Z,17.84
2023-08-17T07:38:18.974Z,17.85
2023-08-17T07:39:19.028Z,17.88
2023-08-17T07:40:18.955Z,17.91
2023-08-17T07:41:18.946Z,17.94
2023-08-17T07:42:18.989Z,17.94
2023-08-17T07:43:18.931Z,17.95
2023-08-17T07:44:18.905Z,18.00
2023-08-17T07:45:18.890Z,18.04
2023-08-17T07:46:18.961Z,18.00
2023-08-17T07:47:18.874Z,18.00
2023-08-17T07:48:18.847Z,18.02
2023-08-17T07:49:26.655Z,17.97
2023-08-17T07:50:19.822Z,17.92
2023-08-17T07:51:18.830Z,17.89
2023-08-17T07:52:18.799Z,17.92
2023-08-17T07:53:18.790Z,17.91
2023-08-17T07:54:18.777Z,17.88
2023-08-17T07:55:18.818Z,17.89
2023-08-17T07:56:18.792Z,17.91
2023-08-17T07:57:18.732Z,17.85
2023-08-17T07:58:18.710Z,17.84
2023-08-17T07:59:18.722Z,17.85
2023-08-17T08:00:18.694Z,17.85
2023-08-17T08:01:18.702Z,17.84
2023-08-17T08:02:18.669Z,17.89
2023-08-17T08:03:18.658Z,17.92
2023-08-17T08:04:18.634Z,17.99
2023-08-17T08:05:18.698Z,18.06
2023-08-17T08:06:18.621Z,18.10
2023-08-17T08:07:18.595Z,18.15
2023-08-17T08:08:18.592Z,18.22
2023-08-17T08:09:18.569Z,18.24
2023-08-17T08:10:18.584Z,18.19
2023-08-17T08:11:18.543Z,18.19
2023-08-17T08:12:18.529Z,18.21
2023-08-17T08:13:18.539Z,18.24
2023-08-17T08:14:18.511Z,18.29
2023-08-17T08:15:18.503Z,18.27
2023-08-17T08:16:18.520Z,18.25
2023-08-17T08:17:18.463Z,18.19
2023-08-17T08:18:18.443Z,18.24
2023-08-17T08:19:18.461Z,18.28
2023-08-17T08:20:18.432Z,18.34
2023-08-17T08:21:18.425Z,18.28
2023-08-17T08:22:18.400Z,18.18
2023-08-17T08:23:18.396Z,18.13
2023-08-17T08:24:30.651Z,18.15
2023-08-17T08:25:19.358Z,18.17
2023-08-17T08:26:18.344Z,18.21
2023-08-17T08:27:18.335Z,18.25
2023-08-17T08:28:18.316Z,18.27
2023-08-17T08:29:18.322Z,18.24
2023-08-17T08:30:18.304Z,18.25
2023-08-17T08:31:18.316Z,18.29
2023-08-17T08:32:18.269Z,18.34
2023-08-17T08:33:18.259Z,18.29
2023-08-17T08:34:18.251Z,18.34
2023-08-17T08:35:18.246Z,18.36
2023-08-17T08:36:18.212Z,18.28
2023-08-17T08:37:18.217Z,18.29
2023-08-17T08:38:18.209Z,18.31
2023-08-17T08:39:18.187Z,18.36
2023-08-17T08:40:18.167Z,18.40
2023-08-17T08:41:18.148Z,18.42
2023-08-17T08:42:18.129Z,18.43
2023-08-17T08:43:18.142Z,18.52
2023-08-17T08:44:18.102Z,18.67
2023-08-17T08:45:18.104Z,18.74
2023-08-17T08:46:18.115Z,18.77
2023-08-17T08:47:18.078Z,18.80
2023-08-17T08:48:18.109Z,18.86
2023-08-17T08:49:18.038Z,18.94
2023-08-17T08:50:18.023Z,19.02
2023-08-17T08:51:18.019Z,19.08
2023-08-17T08:52:18.011Z,19.02
2023-08-17T08:53:18.000Z,19.10
2023-08-17T08:54:17.977Z,19.15
2023-08-17T08:55:17.966Z,19.20
2023-08-17T08:56:17.942Z,19.21
2023-08-17T08:57:17.945Z,19.23
2023-08-17T08:58:17.919Z,19.29
2023-08-17T08:59:17.913Z,19.23
2023-08-17T09:00:17.897Z,19.20
2023-08-17T09:01:17.966Z,19.17
2023-08-17T09:02:17.892Z,19.17
2023-08-17T09:03:17.892Z,19.21
2023-08-17T09:04:17.846Z,19.24
2023-08-17T09:05:17.903Z,19.28
2023-08-17T09:06:38.843Z,19.25
2023-08-17T09:07:17.805Z,19.29
2023-08-17T09:08:17.948Z,19.24
2023-08-17T09:09:17.783Z,19.20
2023-08-17T09:10:17.773Z,19.20
2023-08-17T09:11:17.774Z,19.23
2023-08-17T09:12:26.362Z,19.24
2023-08-17T09:13:18.731Z,19.31
2023-08-17T09:14:17.714Z,19.29
2023-08-17T09:15:17.697Z,19.31
2023-08-17T09:16:17.784Z,19.36
2023-08-17T09:17:19.583Z,19.40
2023-08-17T09:18:17.716Z,19.40
2023-08-17T09:19:17.646Z,19.43
2023-08-17T09:20:17.650Z,19.50
2023-08-17T09:21:17.630Z,19.51
2023-08-17T09:22:17.609Z,19.58
2023-08-17T09:23:17.647Z,19.57
2023-08-17T09:24:17.586Z,19.50
2023-08-17T09:25:17.583Z,19.50
2023-08-17T09:26:17.613Z,19.53
2023-08-17T09:27:17.550Z,19.57
2023-08-17T09:28:17.559Z,19.60
2023-08-17T09:29:17.572Z,19.65
2023-08-17T09:30:19.601Z,19.68
2023-08-17T09:31:17.541Z,19.72
2023-08-17T09:32:17.471Z,19.65
2023-08-17T09:33:17.479Z,19.61
2023-08-17T09:34:17.527Z,19.61
2023-08-17T09:35:17.448Z,19.69
2023-08-17T09:36:17.423Z,19.73
2023-08-17T09:37:17.414Z,19.72
2023-08-17T09:38:17.399Z,19.73
2023-08-17T09:39:17.398Z,19.70
2023-08-17T09:40:22.266Z,19.70
2023-08-17T09:41:18.364Z,19.69
2023-08-17T09:42:17.347Z,19.66
2023-08-17T09:43:17.367Z,19.65
2023-08-17T09:44:17.342Z,19.63
2023-08-17T09:45:17.308Z,19.66
2023-08-17T09:46:17.321Z,19.63
2023-08-17T09:47:17.282Z,19.68
2023-08-17T09:48:17.263Z,19.70
2023-08-17T09:49:17.273Z,19.69
2023-08-17T09:50:17.249Z,19.68
2023-08-17T09:51:17.242Z,19.60
2023-08-17T09:52:17.212Z,19.54
2023-08-17T09:53:17.213Z,19.50
2023-08-17T09:54:17.196Z,19.47
2023-08-17T09:55:17.183Z,19.43
2023-08-17T09:56:18.082Z,19.46
2023-08-17T09:57:22.746Z,19.50
2023-08-17T09:58:18.158Z,19.53
2023-08-17T09:59:17.136Z,19.55
2023-08-17T10:00:17.116Z,19.55
2023-08-17T10:01:17.144Z,19.57
2023-08-17T10:02:17.280Z,19.50
2023-08-17T10:03:17.106Z,19.48
2023-08-17T10:04:17.060Z,19.46
2023-08-17T10:06:18.061Z,19.48
2023-08-17T10:07:17.015Z,19.48
2023-08-17T10:08:17.018Z,19.48
2023-08-17T10:09:16.991Z,19.48
2023-08-17T10:10:16.986Z,19.47
2023-08-17T10:11:16.963Z,19.48
2023-08-17T10:12:16.989Z,19.53
2023-08-17T10:13:16.951Z,19.57
2023-08-17T10:14:16.916Z,19.60
2023-08-17T10:15:19.723Z,19.60
2023-08-17T10:16:16.918Z,19.58
2023-08-17T10:17:16.892Z,19.58
2023-08-17T10:18:16.889Z,19.58
2023-08-17T10:19:16.853Z,19.61
2023-08-17T10:20:16.838Z,19.63
2023-08-17T10:21:16.824Z,19.65
2023-08-17T10:22:19.125Z,19.63
2023-08-17T10:23:16.803Z,19.60
2023-08-17T10:24:16.797Z,19.61
2023-08-17T10:25:16.789Z,19.65
2023-08-17T10:26:16.785Z,19.68
2023-08-17T10:27:16.757Z,19.73
2023-08-17T10:28:16.727Z,19.73
2023-08-17T10:29:23.837Z,19.75
2023-08-17T10:30:16.705Z,19.65
2023-08-17T10:31:16.890Z,19.60
2023-08-17T10:32:17.191Z,19.55
2023-08-17T10:33:16.712Z,19.54
2023-08-17T10:34:16.656Z,19.55
2023-08-17T10:35:16.652Z,19.57
2023-08-17T10:36:16.644Z,19.58
2023-08-17T10:37:16.609Z,19.68
2023-08-17T10:38:16.601Z,19.66
2023-08-17T10:39:16.583Z,19.69
2023-08-17T10:40:16.620Z,19.68
2023-08-17T10:41:18.110Z,19.69
2023-08-17T10:42:20.903Z,19.70
2023-08-17T10:43:16.545Z,19.75
2023-08-17T10:44:16.523Z,19.75
2023-08-17T10:45:16.522Z,19.69
2023-08-17T10:46:16.533Z,19.66
2023-08-17T10:47:16.483Z,19.65
2023-08-17T10:48:16.520Z,19.69
2023-08-17T10:49:16.456Z,19.73
2023-08-17T10:50:16.458Z,19.72
2023-08-17T10:51:16.426Z,19.75
2023-08-17T10:52:16.416Z,19.84
2023-08-17T10:53:16.402Z,19.93
2023-08-17T10:54:16.403Z,20.02
2023-08-17T10:55:16.393Z,20.06
2023-08-17T10:56:16.400Z,20.05
2023-08-17T10:57:16.346Z,20.00
2023-08-17T10:58:16.624Z,19.98
2023-08-17T10:59:16.736Z,20.05
2023-08-17T11:00:20.798Z,20.12
2023-08-17T11:02:16.285Z,20.23
2023-08-17T11:03:16.292Z,20.24
2023-08-17T11:04:16.277Z,20.28
2023-08-17T11:05:16.327Z,20.24
2023-08-17T11:06:16.239Z,20.21
2023-08-17T11:07:16.247Z,20.21
2023-08-17T11:08:16.229Z,20.20
2023-08-17T11:09:16.238Z,20.18
2023-08-17T11:10:16.212Z,20.18
2023-08-17T11:11:16.157Z,20.16
2023-08-17T11:12:16.152Z,20.20
2023-08-17T11:13:16.159Z,20.06
2023-08-17T11:14:16.137Z,19.94
2023-08-17T11:15:16.124Z,19.91
2023-08-17T11:16:18.694Z,19.97
2023-08-17T11:17:16.080Z,20.06
2023-08-17T11:18:16.123Z,20.05
2023-08-17T11:19:16.052Z,20.08
2023-08-17T11:20:16.042Z,20.12
2023-08-17T11:22:17.321Z,20.15
2023-08-17T11:23:16.031Z,20.12
2023-08-17T11:24:15.987Z,20.09
2023-08-17T11:25:15.975Z,20.13
2023-08-17T11:26:15.956Z,20.18
2023-08-17T11:27:15.969Z,20.20
2023-08-17T11:28:15.947Z,20.16
2023-08-17T11:29:15.913Z,20.21
2023-08-17T11:30:15.921Z,20.21
2023-08-17T11:31:15.906Z,20.20
2023-08-17T11:32:15.899Z,20.08
2023-08-17T11:33:15.956Z,19.98
2023-08-17T11:34:15.857Z,19.95
2023-08-17T11:35:15.886Z,19.87
2023-08-17T11:36:15.850Z,19.84
2023-08-17T11:37:15.864Z,19.86
2023-08-17T11:38:15.794Z,19.88
2023-08-17T11:39:15.777Z,19.83
2023-08-17T11:40:15.775Z,19.83
2023-08-17T11:41:18.923Z,19.84
2023-08-17T11:42:20.133Z,19.86
2023-08-17T11:44:16.715Z,19.75
2023-08-17T11:45:15.733Z,19.76
2023-08-17T11:46:15.729Z,19.76
2023-08-17T11:47:15.681Z,19.76
2023-08-17T11:48:15.663Z,19.83
2023-08-17T11:49:15.645Z,19.87
2023-08-17T11:50:21.348Z,19.88
2023-08-17T11:51:16.624Z,19.88
2023-08-17T11:52:15.606Z,19.97
2023-08-17T11:53:15.589Z,20.05
2023-08-17T11:54:15.579Z,20.08
2023-08-17T11:55:15.571Z,20.09
2023-08-17T11:56:15.570Z,20.10
2023-08-17T11:57:15.563Z,20.12
2023-08-17T11:58:15.528Z,20.12
2023-08-17T11:59:15.509Z,20.12
2023-08-17T12:00:15.520Z,20.03
2023-08-17T12:01:15.535Z,20.02
2023-08-17T12:02:15.473Z,20.02
2023-08-17T12:03:15.533Z,20.05
2023-08-17T12:04:15.487Z,20.06
2023-08-17T12:05:15.445Z,20.09
2023-08-17T12:06:15.445Z,20.15
2023-08-17T12:07:15.441Z,20.08
2023-08-17T12:08:15.394Z,20.06
2023-08-17T12:09:15.390Z,20.03
2023-08-17T12:10:15.379Z,20.05
2023-08-17T12:11:15.346Z,20.02
2023-08-17T12:12:15.344Z,19.98
2023-08-17T12:13:15.327Z,19.94
2023-08-17T12:14:15.353Z,19.94
2023-08-17T12:15:15.311Z,19.94
2023-08-17T12:16:15.340Z,19.95
2023-08-17T12:17:15.272Z,19.95
2023-08-17T12:18:15.264Z,19.97
2023-08-17T12:19:15.265Z,19.97
2023-08-17T12:20:15.247Z,19.98
2023-08-17T12:21:15.253Z,19.91
2023-08-17T12:22:15.213Z,19.90
2023-08-17T12:23:15.215Z,19.88
2023-08-17T12:24:15.195Z,19.84
2023-08-17T12:25:15.307Z,19.86
2023-08-17T12:26:15.166Z,19.84
2023-08-17T12:27:15.142Z,19.83
2023-08-17T12:28:15.149Z,19.80
2023-08-17T12:29:15.116Z,19.80
2023-08-17T12:30:15.110Z,19.80
2023-08-17T12:31:15.174Z,19.84
2023-08-17T12:32:15.080Z,19.83
2023-08-17T12:33:15.100Z,19.80
2023-08-17T12:34:15.057Z,19.80
2023-08-17T12:35:15.046Z,19.83
2023-08-17T12:36:15.030Z,19.76
2023-08-17T12:37:15.015Z,19.76
2023-08-17T12:38:15.023Z,19.80
2023-08-17T12:39:14.992Z,19.87
2023-08-17T12:40:15.006Z,19.91
2023-08-17T12:41:14.964Z,19.97
2023-08-17T12:42:14.972Z,20.00
2023-08-17T12:43:16.031Z,19.95
2023-08-17T12:44:17.799Z,19.98
2023-08-17T12:45:14.934Z,20.05
2023-08-17T12:46:14.936Z,20.08
2023-08-17T12:47:14.898Z,20.06
2023-08-17T12:48:14.918Z,20.13
2023-08-17T12:49:17.578Z,20.13
2023-08-17T12:50:14.902Z,20.21
2023-08-17T12:51:14.830Z,20.31
2023-08-17T12:52:14.835Z,20.41
2023-08-17T12:53:14.805Z,20.47
2023-08-17T12:54:14.807Z,20.50
2023-08-17T12:55:14.784Z,20.51
2023-08-17T12:56:14.796Z,20.46
2023-08-17T12:57:14.768Z,20.47
2023-08-17T12:58:14.743Z,20.47
2023-08-17T12:59:14.726Z,20.46
2023-08-17T13:00:14.719Z,20.41
2023-08-17T13:01:14.801Z,20.21
2023-08-17T13:02:14.750Z,20.10
2023-08-17T13:03:15.931Z,20.10
2023-08-17T13:04:14.659Z,20.10
2023-08-17T13:05:14.654Z,20.09
2023-08-17T13:06:14.637Z,20.13
2023-08-17T13:07:14.636Z,20.18
2023-08-17T13:08:14.655Z,20.21
2023-08-17T13:09:14.589Z,20.27
2023-08-17T13:10:14.615Z,20.24
2023-08-17T13:11:14.579Z,20.33
2023-08-17T13:12:14.568Z,20.23
2023-08-17T13:13:14.542Z,20.20
2023-08-17T13:14:14.537Z,20.24
2023-08-17T13:15:14.528Z,20.21
2023-08-17T13:16:14.507Z,20.18
2023-08-17T13:17:14.492Z,20.21
2023-08-17T13:18:14.518Z,20.30
2023-08-17T13:19:14.452Z,20.28
2023-08-17T13:20:14.469Z,20.25
2023-08-17T13:21:14.429Z,20.20
2023-08-17T13:22:14.425Z,20.20
2023-08-17T13:23:14.410Z,20.15
2023-08-17T13:24:14.427Z,20.18
2023-08-17T13:25:14.392Z,20.18
2023-08-17T13:26:14.365Z,20.20
2023-08-17T13:27:14.351Z,20.23
2023-08-17T13:28:14.342Z,20.23
2023-08-17T13:29:14.347Z,20.18
2023-08-17T13:30:14.308Z,20.21
2023-08-17T13:31:23.891Z,20.28
2023-08-17T13:32:15.287Z,20.18
2023-08-17T13:33:14.376Z,20.09
2023-08-17T13:34:14.266Z,20.03
2023-08-17T13:35:14.250Z,20.08
2023-08-17T13:36:14.239Z,20.09
2023-08-17T13:37:14.222Z,20.09
2023-08-17T13:38:14.204Z,20.10
2023-08-17T13:39:14.224Z,20.12
2023-08-17T13:40:14.184Z,19.98
2023-08-17T13:41:14.167Z,19.97
2023-08-17T13:42:14.158Z,20.00
2023-08-17T13:43:14.189Z,20.03
2023-08-17T13:44:14.144Z,20.08
2023-08-17T13:45:14.119Z,20.10
2023-08-17T13:46:14.110Z,20.13
2023-08-17T13:47:14.124Z,20.18
2023-08-17T13:48:14.090Z,20.24
2023-08-17T13:49:14.062Z,20.25
2023-08-17T13:50:14.053Z,20.27
2023-08-17T13:51:14.036Z,20.24
2023-08-17T13:52:14.029Z,20.23
2023-08-17T13:53:14.017Z,20.27
2023-08-17T13:54:14.005Z,20.30
2023-08-17T13:55:13.986Z,20.30
2023-08-17T13:56:13.982Z,20.30
2023-08-17T13:57:13.975Z,20.28
2023-08-17T13:58:13.967Z,20.25
2023-08-17T13:59:13.935Z,20.24
2023-08-17T14:00:13.920Z,20.24
2023-08-17T14:01:13.927Z,20.20
2023-08-17T14:02:13.903Z,20.16
2023-08-17T14:03:13.929Z,20.15
2023-08-17T14:04:13.898Z,20.16
2023-08-17T14:05:13.853Z,20.12
2023-08-17T14:06:13.872Z,20.13
2023-08-17T14:07:13.828Z,20.16
2023-08-17T14:08:13.814Z,20.23
2023-08-17T14:09:13.803Z,20.23
2023-08-17T14:10:18.818Z,20.23
2023-08-17T14:11:14.785Z,20.24
2023-08-17T14:12:13.815Z,20.24
2023-08-17T14:13:13.788Z,20.25
2023-08-17T14:14:13.756Z,20.27
2023-08-17T14:15:13.727Z,20.24
2023-08-17T14:16:13.758Z,20.23
2023-08-17T14:17:13.714Z,20.25
2023-08-17T14:18:13.711Z,20.20
2023-08-17T14:19:13.680Z,20.21
2023-08-17T14:20:14.261Z,20.24
2023-08-17T14:21:13.659Z,20.27
2023-08-17T14:22:13.630Z,20.20
2023-08-17T14:23:13.607Z,20.13
2023-08-17T14:24:13.597Z,20.10
2023-08-17T14:25:13.596Z,20.12
2023-08-17T14:26:13.584Z,20.27
2023-08-17T14:27:13.549Z,20.42
2023-08-17T14:28:13.542Z,20.66
2023-08-17T14:29:13.524Z,20.87
2023-08-17T14:30:13.525Z,21.02
2023-08-17T14:31:13.520Z,21.08
2023-08-17T14:32:13.492Z,21.19
2023-08-17T14:33:13.514Z,21.30
2023-08-17T14:34:13.463Z,21.34
2023-08-17T14:35:13.552Z,21.38
2023-08-17T14:36:19.603Z,21.42
2023-08-17T14:37:14.440Z,21.38
2023-08-17T14:38:13.410Z,21.26
2023-08-17T14:39:13.388Z,21.21
2023-08-17T14:40:13.414Z,21.20
2023-08-17T14:41:13.370Z,21.19
2023-08-17T14:42:13.359Z,21.16
2023-08-17T14:43:13.340Z,21.13
2023-08-17T14:44:13.350Z,21.13
2023-08-17T14:45:13.328Z,21.11
2023-08-17T14:46:15.087Z,21.09
2023-08-17T14:47:14.867Z,21.05
2023-08-17T14:48:13.377Z,21.01
2023-08-17T14:49:13.272Z,20.87
2023-08-17T14:50:13.251Z,20.83
2023-08-17T14:51:13.236Z,20.83
2023-08-17T14:52:13.229Z,20.86
2023-08-17T14:53:13.205Z,20.76
2023-08-17T14:54:13.215Z,20.65
2023-08-17T14:55:13.188Z,20.61
2023-08-17T14:56:13.192Z,20.58
2023-08-17T14:57:13.161Z,20.50
2023-08-17T14:58:13.161Z,20.43
2023-08-17T14:59:13.142Z,20.41
2023-08-17T15:00:16.628Z,20.43
2023-08-17T15:02:14.122Z,20.53
2023-08-17T15:03:13.168Z,20.50
2023-08-17T15:04:13.077Z,20.50
2023-08-17T15:05:13.056Z,20.50
2023-08-17T15:06:24.266Z,20.54
2023-08-17T15:07:14.026Z,20.61
2023-08-17T15:08:13.031Z,20.65
2023-08-17T15:09:12.996Z,20.65
2023-08-17T15:10:13.023Z,20.61
2023-08-17T15:11:12.971Z,20.56
2023-08-17T15:12:12.965Z,20.56
2023-08-17T15:13:12.980Z,20.53
2023-08-17T15:14:16.103Z,20.43
2023-08-17T15:15:12.921Z,20.42
2023-08-17T15:16:12.924Z,20.43
2023-08-17T15:17:12.901Z,20.49
2023-08-17T15:18:12.938Z,20.47
2023-08-17T15:19:14.199Z,20.46
2023-08-17T15:20:12.856Z,20.47
2023-08-17T15:21:12.837Z,20.43
2023-08-17T15:22:15.897Z,20.46
2023-08-17T15:24:13.806Z,20.33
2023-08-17T15:25:12.789Z,20.28
2023-08-17T15:26:12.776Z,20.30
2023-08-17T15:27:12.790Z,20.30
2023-08-17T15:28:12.754Z,20.31
2023-08-17T15:29:12.730Z,20.31
2023-08-17T15:30:12.721Z,20.30
2023-08-17T15:31:12.734Z,20.25
2023-08-17T15:32:12.719Z,20.25
2023-08-17T15:33:12.682Z,20.24
2023-08-17T15:34:12.673Z,20.23
2023-08-17T15:35:12.661Z,20.18
2023-08-17T15:36:12.660Z,20.13
2023-08-17T15:37:12.626Z,20.09
2023-08-17T15:38:12.615Z,20.09
2023-08-17T15:39:12.597Z,20.09
2023-08-17T15:40:12.608Z,20.08
2023-08-17T15:41:12.587Z,20.06
2023-08-17T15:42:12.566Z,20.03
2023-08-17T15:43:12.544Z,20.05
2023-08-17T15:44:12.530Z,20.05
2023-08-17T15:45:12.533Z,20.06
2023-08-17T15:46:12.554Z,20.08
2023-08-17T15:47:12.495Z,20.06
2023-08-17T15:48:12.538Z,20.05
2023-08-17T15:49:12.460Z,20.03
2023-08-17T15:50:12.472Z,19.97
2023-08-17T15:51:12.446Z,19.97
2023-08-17T15:52:12.730Z,19.97
2023-08-17T15:53:12.411Z,19.95
2023-08-17T15:54:12.639Z,19.95
2023-08-17T15:55:12.393Z,19.97
2023-08-17T15:56:12.372Z,19.98
2023-08-17T15:57:12.364Z,19.97
2023-08-17T15:58:12.347Z,20.02
2023-08-17T15:59:12.336Z,20.02
2023-08-17T16:00:12.331Z,20.02
2023-08-17T16:01:12.329Z,20.00
2023-08-17T16:02:12.309Z,19.98
2023-08-17T16:03:13.517Z,19.94
2023-08-17T16:04:12.275Z,19.93
2023-08-17T16:05:12.255Z,19.91
2023-08-17T16:06:12.242Z,19.87
2023-08-17T16:07:12.222Z,19.86
2023-08-17T16:08:12.218Z,19.84
2023-08-17T16:09:12.215Z,19.83
2023-08-17T16:10:12.187Z,19.84
2023-08-17T16:11:12.166Z,19.83
2023-08-17T16:12:12.162Z,19.84
2023-08-17T16:13:12.154Z,19.86
2023-08-17T16:14:12.145Z,19.83
2023-08-17T16:15:12.112Z,19.76
2023-08-17T16:16:12.129Z,19.78
2023-08-17T16:17:12.089Z,19.79
2023-08-17T16:18:12.129Z,19.78
2023-08-17T16:19:12.062Z,19.79
2023-08-17T16:20:12.054Z,19.83
2023-08-17T16:21:15.099Z,19.78
2023-08-17T16:22:17.170Z,19.78
2023-08-17T16:23:13.016Z,19.75
2023-08-17T16:24:12.010Z,19.75
2023-08-17T16:25:11.980Z,19.78
2023-08-17T16:26:11.984Z,19.78
2023-08-17T16:27:11.997Z,19.79
2023-08-17T16:28:11.961Z,19.80
2023-08-17T16:29:15.621Z,19.80
2023-08-17T16:30:11.913Z,19.75
2023-08-17T16:31:11.960Z,19.72
2023-08-17T16:32:11.913Z,19.73
2023-08-17T16:33:15.796Z,19.72
2023-08-17T16:34:11.867Z,19.72
2023-08-17T16:35:11.853Z,19.69
2023-08-17T16:36:11.892Z,19.68
2023-08-17T16:37:11.844Z,19.66
2023-08-17T16:38:11.809Z,19.65
2023-08-17T16:39:11.812Z,19.60
2023-08-17T16:40:20.545Z,19.55
2023-08-17T16:41:12.789Z,19.48
2023-08-17T16:42:11.788Z,19.47
2023-08-17T16:43:11.761Z,19.42
2023-08-17T16:44:11.736Z,19.43
2023-08-17T16:45:11.725Z,19.46
2023-08-17T16:46:15.711Z,19.47
2023-08-17T16:47:11.715Z,19.46
2023-08-17T16:48:11.713Z,19.42
2023-08-17T16:49:11.671Z,19.42
2023-08-17T16:50:11.654Z,19.47
2023-08-17T16:51:11.672Z,19.47
2023-08-17T16:52:11.661Z,19.47
2023-08-17T16:53:11.623Z,19.47
2023-08-17T16:54:11.603Z,19.46
2023-08-17T16:55:11.596Z,19.47
2023-08-17T16:56:11.592Z,19.50
2023-08-17T16:57:11.567Z,19.47
2023-08-17T16:58:11.551Z,19.46
2023-08-17T16:59:11.543Z,19.42
2023-08-17T17:00:11.545Z,19.40
2023-08-17T17:01:14.950Z,19.36
2023-08-17T17:02:14.224Z,19.32
2023-08-17T17:03:11.532Z,19.31
2023-08-17T17:04:11.490Z,19.31
2023-08-17T17:05:11.501Z,19.32
2023-08-17T17:06:11.456Z,19.28
2023-08-17T17:07:11.436Z,19.29
2023-08-17T17:08:11.424Z,19.29
2023-08-17T17:09:11.430Z,19.28
2023-08-17T17:10:11.412Z,19.23
2023-08-17T17:11:11.384Z,19.21
2023-08-17T17:12:11.372Z,19.23
2023-08-17T17:13:11.382Z,19.20
2023-08-17T17:14:11.351Z,19.17